Pecos, NM (87552)

11:19 AM MDT on October 01, 2014 (GMT -0600)
San Geronimo | Change Station
CLOSE
Current Station
Personal Weather Station
Location: Las Vegas, NM
Elevation: 6778 ft
Nearby Weather Stations

Elev 6778 ft 35.57 °N, 105.39 °W | Updated 2 seconds ago

Clear
Clear
68.4 °F
Feels Like 68.4 °F
N
0.0
Wind Variable Wind from North
Gusts 3.1 mph

Today
High -- | Low -- °F
--% Chance of Precip.
Yesterday
High -- | Low -- °F
Precip. -- in
6:57 AM 6:46 PM
Waxing Crescent, 49% visible
Pressure 29.80 in
Visibility 10.0 miles
Clouds Clear
Dew Point 37 °F
Humidity 32%
Rainfall 0.00 in
Snow Depth 0 in , 1 in , 21 in
UV 6 out of 12
Pollen 5.90 out of 12
Air Quality Not available.
Flu Activity Not available.
METAR KSAF 011653Z 20007KT 10SM CLR 17/00 A3002 RMK AO2 SLP091 T01720000

More Conditions Fewer Conditions

Pressure 29.80 in
Visibility 10.0 miles
Clouds Clear
Dew Point 37 °F
Humidity 32%
Rainfall 0.00 in
Snow Depth 0 in , 1 in , 21 in
UV 6 out of 12
Pollen 5.90 out of 12
Air Quality Not available.
Flu Activity Not available.
METAR KSAF 011653Z 20007KT 10SM CLR 17/00 A3002 RMK AO2 SLP091 T01720000

More Conditions Fewer Conditions

10-Day Weather Forecast

Almanac

Astronomy

Oct. 01, 2014 Rise Set
Actual Time 6:57 AM MDT 6:46 PM MDT
Civil Twilight 6:32 AM MDT 7:11 PM MDT
Nautical Twilight 6:02 AM MDT 7:41 PM MDT
Astronomical Twilight 5:32 AM MDT 8:10 PM MDT
Moon 1:52 PM MDT No Moon Set
Length of Visible Light 12h 39m
Length of Day
11h 48m
Tomorrow will be 2m 13s shorter.
Waxing Crescent, 49% of the Moon is Illuminated
Today
Waxing Crescent
Oct 1
First Quarter
Oct 8
Full
Oct 15
Last Quarter
Oct 23
New

Today's Extremes

State Highs State Lows

Community

WunderPhotos

Upload Photos

1,757,986 photos uploaded!

WunderBlogs® & News

By Dr. Jeff Masters
Director of Meteorology, Weather Underground
By Kari Strenfel
Meteorologist, Weather Underground
By Christopher C. Burt
Weather Historian, Weather Underground
October 1, 2014
October 1, 2014
October 1, 2014

Nearby

Snow Depth

Station Depth Elevation
McKnight Cabin 0 in 9240 ft
Gallegos Peak 1 in 9800 ft
Tolby 1 in 10180 ft
Silver Creek Divide 21 in 9000 ft
Signal Peak 2 in 8360 ft

Earthquake Activity

City Distance Mag. Time & Date
Trinidad, Colorado 108 miles 2.9 3:55 AM MDT
2014-09-30
Minimum magnitude displayed is 2.5.

Coastal Water Temperatures

Place Temperature
No Stations Reporting

Nearby Weather Stations